Time;durP1;ratioP1;P1;durP2;ratioP2;P2;SDS_P1;SDS_P2;PMS_P1;PMS_P2;Temp;Humidity;BMP_temperature;BMP_pressure;BME280_temperature;BME280_humidity;BME280_pressure;Samples;Min_cycle;Max_cycle;Signal;HPM_P1;HPM_P2
2022/12/08 00:00:48;;;;;;;7.82;2.28;;;2.70;99.90;;;;;;5082253;28;20048;-63
2022/12/08 00:03:14;;;;;;;4.38;2.13;;;2.70;99.90;;;;;;5100462;28;20032;-63
2022/12/08 00:11:16;;;;;;;5.90;1.80;;;2.90;99.90;;;;;;5105885;28;20028;-63
2022/12/08 00:13:41;;;;;;;4.55;1.92;;;2.90;99.90;;;;;;5109614;28;20031;-64
2022/12/08 00:16:07;;;;;;;3.08;1.23;;;2.90;99.90;;;;;;5095558;28;20101;-64
2022/12/08 00:18:33;;;;;;;4.82;1.38;;;2.90;99.90;;;;;;5109501;28;20044;-64
2022/12/08 00:20:59;;;;;;;7.38;1.50;;;2.70;99.90;;;;;;5095306;28;20402;-64
2022/12/08 00:23:25;;;;;;;7.88;4.00;;;2.90;99.90;;;;;;5095483;28;20114;-64
2022/12/08 00:25:51;;;;;;;4.57;1.05;;;2.90;99.90;;;;;;5095235;28;20021;-63
2022/12/08 00:28:17;;;;;;;2.55;1.20;;;2.90;99.90;;;;;;5094775;28;20140;-64
2022/12/08 00:30:43;;;;;;;7.88;1.58;;;;;;;;;;5094804;28;20494;-63
2022/12/08 00:33:09;;;;;;;5.97;1.40;;;2.80;99.90;;;;;;5095305;28;20107;-63
2022/12/08 00:35:35;;;;;;;4.10;1.30;;;;;;;;;;5077018;28;20032;-64
2022/12/08 00:38:01;;;;;;;4.80;1.05;;;2.80;99.90;;;;;;5109377;28;20032;-63
2022/12/08 00:40:27;;;;;;;3.92;1.77;;;2.80;99.90;;;;;;5094770;28;20486;-63
2022/12/08 00:42:53;;;;;;;4.47;1.48;;;2.90;99.90;;;;;;5094671;28;20044;-63
2022/12/08 00:45:18;;;;;;;2.70;1.30;;;3.20;99.90;;;;;;5105014;28;20131;-64
2022/12/08 00:47:44;;;;;;;2.60;1.23;;;2.90;99.90;;;;;;5100729;28;20486;-63
2022/12/08 00:50:10;;;;;;;4.45;1.70;;;;;;;;;;5106684;28;20455;-65
2022/12/08 00:52:36;;;;;;;6.60;1.40;;;;;;;;;;5094902;28;20071;-64
2022/12/08 00:55:03;;;;;;;6.95;1.80;;;;;;;;;;5076344;28;20036;-63
2022/12/08 00:57:28;;;;;;;4.57;1.40;;;2.90;99.90;;;;;;5094392;28;20066;-64
2022/12/08 00:59:54;;;;;;;4.55;1.40;;;3.00;99.90;;;;;;5094454;28;20539;-63
2022/12/08 01:02:19;;;;;;;1.75;1.13;;;2.90;99.90;;;;;;5094633;28;20043;-63
2022/12/08 01:04:45;;;;;;;2.40;1.00;;;2.90;99.90;;;;;;5094780;28;20501;-63
2022/12/08 01:07:10;;;;;;;2.38;1.10;;;2.90;99.90;;;;;;5094463;28;20500;-63
2022/12/08 01:09:36;;;;;;;4.15;1.02;;;2.80;99.90;;;;;;5107753;28;20050;-64
2022/12/08 01:12:02;;;;;;;1.63;1.30;;;2.90;99.90;;;;;;5079816;28;20102;-64
2022/12/08 01:14:27;;;;;;;2.95;1.20;;;3.00;99.90;;;;;;5076098;28;20040;-64
2022/12/08 01:16:53;;;;;;;3.75;1.27;;;;;;;;;;5076033;28;20044;-64
2022/12/08 01:19:19;;;;;;;2.08;1.10;;;3.20;99.90;;;;;;5108367;28;20123;-63
2022/12/08 01:21:45;;;;;;;5.43;1.40;;;3.00;99.90;;;;;;5094131;28;20040;-63
2022/12/08 01:24:14;;;;;;;4.30;1.10;;;3.20;99.90;;;;;;5093890;28;20119;-63
2022/12/08 01:26:40;;;;;;;5.53;1.25;;;3.10;99.90;;;;;;5075742;28;20501;-64
2022/12/08 01:29:06;;;;;;;4.53;1.20;;;3.10;99.90;;;;;;5075366;28;20087;-62
2022/12/08 01:31:31;;;;;;;5.03;1.20;;;3.20;99.90;;;;;;5093919;28;20111;-64
2022/12/08 01:33:57;;;;;;;7.28;1.63;;;3.20;99.90;;;;;;5093873;28;20516;-63
2022/12/08 01:36:28;;;;;;;2.45;1.40;;;3.30;99.90;;;;;;5094057;28;20032;-63
2022/12/08 01:38:57;;;;;;;2.40;1.25;;;3.30;99.90;;;;;;5107314;28;20489;-64
2022/12/08 01:41:25;;;;;;;4.28;1.27;;;4.40;99.90;;;;;;5093890;28;20032;-64
2022/12/08 01:44:01;;;;;;;3.15;1.13;;;3.40;99.90;;;;;;5105914;28;20052;-63
2022/12/08 01:46:28;;;;;;;3.70;1.02;;;;;;;;;;5075794;28;20118;-63
2022/12/08 01:49:03;;;;;;;7.85;1.27;;;3.30;99.90;;;;;;5093597;28;20078;-63
2022/12/08 01:51:34;;;;;;;3.17;1.48;;;3.30;99.90;;;;;;5093433;28;20039;-63
2022/12/08 01:54:02;;;;;;;4.22;1.50;;;3.60;99.90;;;;;;5093597;28;20040;-63
2022/12/08 01:56:39;;;;;;;4.72;1.30;;;3.40;99.90;;;;;;5093328;28;20036;-64
2022/12/08 01:59:05;;;;;;;3.15;1.17;;;3.60;99.90;;;;;;5093494;28;20055;-63
2022/12/08 02:01:31;;;;;;;2.22;0.90;;;3.30;99.90;;;;;;5075194;28;20040;-63
2022/12/08 02:03:59;;;;;;;5.70;1.20;;;3.20;99.90;;;;;;5075147;28;20050;-65
2022/12/08 02:06:27;;;;;;;4.90;1.40;;;3.30;99.90;;;;;;5107560;28;20047;-63
2022/12/08 02:08:56;;;;;;;2.78;1.20;;;3.10;99.90;;;;;;5097633;28;20110;-63
2022/12/08 02:11:22;;;;;;;3.05;1.23;;;;;;;;;;5102763;28;20040;-63
2022/12/08 02:13:50;;;;;;;2.28;1.17;;;3.10;99.90;;;;;;5093443;28;20118;-63
2022/12/08 02:16:43;;;;;;;4.55;1.30;;;3.00;99.90;;;;;;5067492;28;20036;-63
2022/12/08 02:19:33;;;;;;;2.58;1.25;;;3.00;99.90;;;;;;5095011;28;20052;-63
2022/12/08 02:22:13;;;;;;;3.63;0.93;;;3.10;99.90;;;;;;5091236;28;20532;-63
2022/12/08 02:24:45;;;;;;;4.97;1.48;;;3.00;99.90;;;;;;5091452;28;20051;-63
2022/12/08 02:27:29;;;;;;;4.93;1.30;;;3.10;99.90;;;;;;5078852;28;20063;-64
2022/12/08 02:30:10;;;;;;;3.35;1.08;;;3.00;99.90;;;;;;5083716;28;20056;-63
2022/12/08 02:32:59;;;;;;;3.83;1.10;;;3.00;99.90;;;;;;5092939;28;20391;-63
2022/12/08 02:35:43;;;;;;;1.67;1.00;;;2.80;99.90;;;;;;5092792;28;20119;-64
2022/12/08 02:38:33;;;;;;;3.30;1.85;;;2.80;99.90;;;;;;5107120;28;20067;-62
2022/12/08 02:41:13;;;;;;;3.08;1.15;;;2.90;99.90;;;;;;5093458;28;20044;-63
2022/12/08 02:43:47;;;;;;;6.63;1.58;;;3.00;99.90;;;;;;5104618;28;20108;-64
2022/12/08 02:46:19;;;;;;;3.38;1.10;;;3.10;99.90;;;;;;5092770;28;20489;-63
2022/12/08 02:48:46;;;;;;;1.40;0.80;;;3.10;99.90;;;;;;5074958;28;20388;-63
2022/12/08 02:51:11;;;;;;;2.80;1.08;;;3.30;99.90;;;;;;5092730;28;20040;-63
2022/12/08 02:53:37;;;;;;;4.40;1.20;;;3.20;99.90;;;;;;5080849;28;20044;-62
2022/12/08 02:56:06;;;;;;;1.95;1.08;;;3.20;99.90;;;;;;5101177;28;20367;-62
2022/12/08 02:58:47;;;;;;;2.90;0.68;;;3.30;99.90;;;;;;5092486;28;20489;-62
2022/12/08 03:01:43;;;;;;;4.35;1.30;;;3.20;99.90;;;;;;5074812;28;20082;-62
2022/12/08 03:04:15;;;;;;;;;;;3.10;99.90;;;;;;5081894;28;20402;-63
2022/12/08 03:06:49;;;;;;;6.93;1.40;;;3.20;99.90;;;;;;5094487;28;19923;-65
2022/12/08 03:09:14;;;;;;;3.60;1.20;;;3.10;99.90;;;;;;5104277;28;20044;-63
2022/12/08 03:11:52;;;;;;;1.92;1.20;;;3.00;99.90;;;;;;5074564;28;20047;-63
2022/12/08 03:14:19;;;;;;;2.15;0.90;;;;;;;;;;5074262;28;20039;-63
2022/12/08 03:16:48;;;;;;;2.45;1.33;;;3.10;99.90;;;;;;5074250;28;20072;-63
2022/12/08 03:19:29;;;;;;;3.13;1.00;;;3.10;99.90;;;;;;5092254;28;20121;-64
2022/12/08 03:22:01;;;;;;;1.65;0.98;;;3.20;99.90;;;;;;5092384;28;20044;-63
2022/12/08 03:24:33;;;;;;;3.00;0.93;;;3.20;99.90;;;;;;5092506;28;20567;-63
2022/12/08 03:27:03;;;;;;;1.30;1.20;;;3.10;99.90;;;;;;5074311;28;20093;-64
2022/12/08 03:29:30;;;;;;;3.83;1.33;;;3.10;99.90;;;;;;5092232;28;20466;-64
2022/12/08 03:32:07;;;;;;;4.20;1.42;;;;;;;;;;5075636;28;20048;-63
2022/12/08 03:34:35;;;;;;;2.08;0.88;;;3.20;99.90;;;;;;5096516;28;20039;-64
2022/12/08 03:37:01;;;;;;;5.93;1.38;;;3.20;99.90;;;;;;5108797;28;20520;-63
2022/12/08 03:39:27;;;;;;;2.60;0.80;;;3.30;99.90;;;;;;5102163;28;20074;-63
2022/12/08 03:41:53;;;;;;;2.60;0.80;;;3.20;99.90;;;;;;5105817;28;20119;-63
2022/12/08 03:44:18;;;;;;;1.63;0.90;;;3.20;99.90;;;;;;5098200;28;20082;-64
2022/12/08 03:46:44;;;;;;;2.50;1.00;;;3.10;99.90;;;;;;5116202;28;20046;-63
2022/12/08 03:49:10;;;;;;;3.13;1.85;;;3.10;99.90;;;;;;5101571;28;20115;-64
2022/12/08 03:51:36;;;;;;;2.78;0.65;;;3.00;99.90;;;;;;5084277;28;20114;-63
2022/12/08 03:54:02;;;;;;;3.00;0.73;;;3.00;99.90;;;;;;5103782;28;20047;-63
2022/12/08 03:56:29;;;;;;;3.45;1.10;;;3.10;99.90;;;;;;5089673;28;20039;-64
2022/12/08 03:58:55;;;;;;;1.83;1.23;;;3.10;99.90;;;;;;5086849;28;20104;-64
2022/12/08 04:01:21;;;;;;;2.75;0.93;;;3.00;99.90;;;;;;5095837;28;20491;-63
2022/12/08 04:03:47;;;;;;;2.30;0.90;;;;;;;;;;5095844;28;20028;-63
2022/12/08 04:06:14;;;;;;;3.13;1.55;;;2.80;99.90;;;;;;5095554;28;20073;-63
2022/12/08 04:08:39;;;;;;;4.68;2.10;;;2.80;99.90;;;;;;5077287;28;20051;-63
2022/12/08 04:11:06;;;;;;;2.15;1.10;;;2.70;99.90;;;;;;5095488;28;20032;-63
2022/12/08 04:13:37;;;;;;;4.72;1.33;;;2.80;99.90;;;;;;5077058;28;20418;-63
2022/12/08 04:16:03;;;;;;;1.77;1.00;;;2.80;99.90;;;;;;5095571;28;20105;-63
2022/12/08 04:18:30;;;;;;;1.75;1.02;;;2.80;99.90;;;;;;5095290;28;20047;-63
2022/12/08 04:20:55;;;;;;;1.77;1.20;;;2.80;99.90;;;;;;5105449;28;20031;-63
2022/12/08 04:23:21;;;;;;;2.05;1.08;;;2.70;99.90;;;;;;5099363;28;20113;-63
2022/12/08 04:25:47;;;;;;;2.50;1.10;;;;;;;;;;5095312;28;20436;-64
2022/12/08 04:28:12;;;;;;;2.08;1.40;;;2.90;99.90;;;;;;5104887;28;20051;-63
2022/12/08 04:30:38;;;;;;;2.90;1.40;;;2.90;99.90;;;;;;5097888;28;20039;-63
2022/12/08 04:33:04;;;;;;;3.78;1.10;;;2.80;99.90;;;;;;5102996;28;20110;-63
2022/12/08 04:35:30;;;;;;;1.90;1.50;;;2.80;99.90;;;;;;5101351;28;20044;-63
2022/12/08 04:37:56;;;;;;;2.20;1.27;;;2.90;99.90;;;;;;5101167;28;20027;-63
2022/12/08 04:40:22;;;;;;;4.00;0.90;;;2.90;99.90;;;;;;5103140;28;20098;-63
2022/12/08 04:42:48;;;;;;;3.50;0.80;;;;;;;;;;5098569;28;20051;-63
2022/12/08 04:45:14;;;;;;;2.55;1.10;;;2.90;99.90;;;;;;5086732;28;20043;-63
2022/12/08 04:47:40;;;;;;;1.92;1.15;;;2.80;99.90;;;;;;5090853;28;20081;-63
2022/12/08 04:50:06;;;;;;;4.28;1.10;;;2.80;99.90;;;;;;5094691;28;20106;-63
2022/12/08 04:52:32;;;;;;;2.58;1.00;;;3.00;99.90;;;;;;5094809;28;20044;-64
2022/12/08 04:54:57;;;;;;;4.10;1.30;;;2.70;99.90;;;;;;5076487;28;20058;-64
2022/12/08 04:57:23;;;;;;;3.47;1.52;;;2.90;99.90;;;;;;5094395;28;20085;-64
2022/12/08 04:59:49;;;;;;;2.47;1.17;;;;;;;;;;5094590;28;20402;-64
2022/12/08 05:02:14;;;;;;;3.13;1.35;;;3.10;99.90;;;;;;5094725;28;20051;-63
2022/12/08 05:04:40;;;;;;;1.80;1.25;;;3.00;99.90;;;;;;5076581;28;20513;-63
2022/12/08 05:07:06;;;;;;;1.85;0.85;;;2.90;99.90;;;;;;5076297;28;20492;-63
2022/12/08 05:09:32;;;;;;;3.17;1.00;;;;;;;;;;5094522;28;20077;-64
2022/12/08 05:11:58;;;;;;;4.63;1.30;;;;;;;;;;5100393;28;20092;-65
2022/12/08 05:14:23;;;;;;;2.03;1.23;;;2.90;99.90;;;;;;5102158;28;20044;-63
2022/12/08 05:16:49;;;;;;;1.15;0.90;;;2.90;99.90;;;;;;5094216;28;20561;-63
2022/12/08 05:19:15;;;;;;;1.90;1.17;;;2.90;99.90;;;;;;5094330;28;20040;-63
2022/12/08 05:21:41;;;;;;;1.50;0.98;;;2.90;99.90;;;;;;5094039;28;20036;-63
2022/12/08 05:24:07;;;;;;;4.05;2.15;;;3.00;99.90;;;;;;5094291;28;20059;-64
2022/12/08 05:26:33;;;;;;;1.13;1.10;;;2.90;99.90;;;;;;5093712;28;20046;-64
2022/12/08 05:28:58;;;;;;;1.38;1.25;;;2.80;99.90;;;;;;5075401;28;20044;-63
2022/12/08 05:31:24;;;;;;;2.30;1.02;;;2.70;99.90;;;;;;5102513;28;20089;-63
2022/12/08 05:33:50;;;;;;;3.72;1.00;;;;;;;;;;5099852;28;20043;-65
2022/12/08 05:36:17;;;;;;;1.63;0.93;;;2.80;99.90;;;;;;5093975;28;20032;-63
2022/12/08 05:38:44;;;;;;;1.55;0.90;;;3.10;99.90;;;;;;5106690;28;20119;-63
2022/12/08 05:41:14;;;;;;;2.70;1.40;;;3.00;99.90;;;;;;5091612;28;20091;-63
2022/12/08 05:43:39;;;;;;;1.63;1.00;;;2.80;99.90;;;;;;5093682;28;20044;-63
2022/12/08 05:46:07;;;;;;;2.45;1.05;;;2.70;99.90;;;;;;5093519;28;20456;-63
2022/12/08 05:48:33;;;;;;;2.95;1.42;;;2.80;99.90;;;;;;5093804;28;20036;-64
2022/12/08 05:50:58;;;;;;;3.28;1.83;;;2.80;99.90;;;;;;5093520;28;20043;-63
2022/12/08 05:53:24;;;;;;;2.67;1.88;;;2.80;99.90;;;;;;5075281;28;20038;-64
2022/12/08 05:55:50;;;;;;;6.90;2.30;;;2.80;99.90;;;;;;5074723;28;20055;-63
2022/12/08 05:58:18;;;;;;;7.65;3.95;;;2.80;99.90;;;;;;5093261;28;20549;-64
2022/12/08 06:00:45;;;;;;;6.15;2.10;;;;;;;;;;5105535;28;20027;-63
2022/12/08 06:03:11;;;;;;;2.38;0.98;;;2.80;99.90;;;;;;5077452;28;20040;-63
2022/12/08 06:05:37;;;;;;;3.70;0.85;;;2.80;99.90;;;;;;5093217;28;20485;-63
2022/12/08 06:08:03;;;;;;;2.45;1.00;;;2.80;99.90;;;;;;5075218;28;20036;-63
2022/12/08 06:10:28;;;;;;;1.70;0.93;;;2.90;99.90;;;;;;5075168;28;20570;-63
2022/12/08 06:12:54;;;;;;;1.85;0.88;;;2.50;99.90;;;;;;5093111;28;20038;-63
2022/12/08 06:15:19;;;;;;;2.15;1.10;;;2.60;99.90;;;;;;5093307;28;20036;-63
2022/12/08 06:17:45;;;;;;;1.50;1.23;;;2.70;99.90;;;;;;5093414;28;20043;-63
2022/12/08 06:20:11;;;;;;;1.98;1.05;;;2.60;99.90;;;;;;5093098;28;20085;-63
2022/12/08 06:22:37;;;;;;;1.35;0.90;;;2.70;99.90;;;;;;5093262;28;20089;-64
2022/12/08 06:25:03;;;;;;;3.17;0.80;;;2.60;99.90;;;;;;5074942;28;20452;-63
2022/12/08 06:27:29;;;;;;;3.80;1.10;;;2.80;99.90;;;;;;5062055;28;20541;-63
2022/12/08 06:29:54;;;;;;;2.20;0.70;;;2.70;99.90;;;;;;5111788;28;20127;-63
2022/12/08 06:32:20;;;;;;;1.38;0.88;;;2.70;99.90;;;;;;5097269;28;20032;-64
2022/12/08 06:34:46;;;;;;;3.03;0.93;;;2.70;99.90;;;;;;5093127;28;20067;-63
2022/12/08 06:37:11;;;;;;;6.00;1.20;;;2.60;99.90;;;;;;5107088;28;20078;-63
2022/12/08 06:39:37;;;;;;;4.55;1.08;;;2.60;99.90;;;;;;5074979;28;20043;-63
2022/12/08 06:44:47;;;;;;;4.15;1.30;;;2.70;99.90;;;;;;5061293;28;20394;-63
2022/12/08 06:47:12;;;;;;;2.97;1.02;;;2.60;99.90;;;;;;5092897;28;20044;-64
2022/12/08 06:49:38;;;;;;;2.72;0.95;;;2.30;99.90;;;;;;5092883;28;20427;-63
2022/12/08 06:52:04;;;;;;;1.20;1.10;;;2.40;99.90;;;;;;5093067;28;20043;-63
2022/12/08 06:54:30;;;;;;;2.63;1.02;;;;;;;;;;5074678;28;20077;-63
2022/12/08 06:56:55;;;;;;;2.20;0.80;;;2.40;99.90;;;;;;5092950;28;20071;-63
2022/12/08 06:59:22;;;;;;;3.22;0.90;;;;;;;;;;5092927;28;20072;-64
2022/12/08 07:01:47;;;;;;;1.42;1.02;;;2.40;99.90;;;;;;5077520;28;20553;-64
2022/12/08 07:04:13;;;;;;;1.70;0.90;;;;;;;;;;5110342;28;20119;-64
2022/12/08 07:06:39;;;;;;;1.75;1.02;;;2.50;99.90;;;;;;5098553;28;20032;-63
2022/12/08 07:09:05;;;;;;;1.20;1.08;;;;;;;;;;5098131;28;20043;-64
2022/12/08 07:11:30;;;;;;;3.22;1.05;;;2.40;99.90;;;;;;5103694;28;20527;-63
2022/12/08 07:13:56;;;;;;;4.40;1.17;;;2.50;99.90;;;;;;5114830;28;20067;-63
2022/12/08 07:16:22;;;;;;;1.55;1.08;;;2.40;99.90;;;;;;5111843;28;20050;-63
2022/12/08 07:18:48;;;;;;;1.15;1.00;;;2.50;99.90;;;;;;5096433;28;20039;-64
2022/12/08 07:21:15;;;;;;;2.38;1.15;;;2.50;99.90;;;;;;5104255;28;20032;-63
2022/12/08 07:23:41;;;;;;;4.25;1.23;;;;;;;;;;5096240;28;20075;-64
2022/12/08 07:26:09;;;;;;;1.98;1.10;;;2.40;99.90;;;;;;5086148;28;20382;-63
2022/12/08 07:28:37;;;;;;;1.92;0.90;;;2.40;99.90;;;;;;5105220;28;20040;-63
2022/12/08 07:31:03;;;;;;;1.67;1.17;;;;;;;;;;5078153;28;20036;-63
2022/12/08 07:33:30;;;;;;;1.20;1.10;;;2.40;99.90;;;;;;5107693;28;20047;-64
2022/12/08 07:35:57;;;;;;;1.90;1.40;;;2.40;99.90;;;;;;5098753;28;20077;-63
2022/12/08 07:38:23;;;;;;;5.93;1.20;;;2.40;99.90;;;;;;5086184;28;20558;-63
2022/12/08 07:40:50;;;;;;;3.60;1.00;;;2.60;99.90;;;;;;5107718;28;20565;-63
2022/12/08 07:43:15;;;;;;;4.35;1.00;;;;;;;;;;5077475;28;20077;-63
2022/12/08 07:45:41;;;;;;;1.65;1.00;;;2.30;99.90;;;;;;5096000;28;20036;-64
2022/12/08 07:48:07;;;;;;;2.00;1.23;;;;;;;;;;5095598;28;20039;-65
2022/12/08 07:50:33;;;;;;;2.80;1.08;;;;;;;;;;5113836;28;20393;-65
2022/12/08 07:52:59;;;;;;;1.83;1.52;;;;;;;;;;5093182;28;20043;-62
2022/12/08 07:55:25;;;;;;;2.53;1.00;;;2.30;99.90;;;;;;5112728;28;20036;-65
2022/12/08 07:57:51;;;;;;;1.65;1.00;;;;;;;;;;5111429;28;20154;-65
2022/12/08 08:00:18;;;;;;;1.50;0.98;;;2.20;99.90;;;;;;5110865;28;20057;-65
2022/12/08 08:02:44;;;;;;;2.22;1.20;;;;;;;;;;5093469;28;20497;-67
2022/12/08 08:05:11;;;;;;;2.38;1.23;;;;;;;;;;5095476;28;20046;-65
2022/12/08 08:07:37;;;;;;;2.42;1.33;;;;;;;;;;5112242;28;20059;-66
2022/12/08 08:10:04;;;;;;;2.55;1.40;;;2.00;99.90;;;;;;5107408;28;20461;-67
2022/12/08 08:12:29;;;;;;;4.40;1.70;;;2.10;99.90;;;;;;5113248;28;20040;-67
2022/12/08 08:14:55;;;;;;;3.63;1.52;;;2.20;99.90;;;;;;5113566;28;20542;-67
2022/12/08 08:17:20;;;;;;;2.47;0.90;;;2.20;99.90;;;;;;5113240;28;20065;-67
2022/12/08 08:19:46;;;;;;;3.08;1.00;;;2.10;99.90;;;;;;5111765;28;20039;-65
2022/12/08 08:22:12;;;;;;;6.50;1.58;;;;;;;;;;5069947;28;20044;-64
2022/12/08 08:24:38;;;;;;;2.40;1.40;;;1.90;99.90;;;;;;5101460;28;20043;-66
2022/12/08 08:27:04;;;;;;;4.53;1.42;;;;;;;;;;5093271;28;20093;-65
2022/12/08 08:29:30;;;;;;;4.90;1.08;;;;;;;;;;5106712;28;20146;-66
2022/12/08 08:31:55;;;;;;;3.40;1.48;;;2.20;99.90;;;;;;5076979;28;20055;-66
2022/12/08 08:34:21;;;;;;;4.70;1.50;;;;;;;;;;5096597;28;20032;-66
2022/12/08 08:36:47;;;;;;;4.07;1.15;;;;;;;;;;5082087;28;20052;-65
2022/12/08 08:39:13;;;;;;;2.78;1.27;;;2.00;99.90;;;;;;5076338;28;20489;-66
2022/12/08 08:41:40;;;;;;;2.90;1.38;;;;;;;;;;5096844;28;20036;-67
2022/12/08 08:44:05;;;;;;;1.75;1.10;;;2.00;99.90;;;;;;5098494;28;20040;-66
2022/12/08 08:46:31;;;;;;;5.85;2.47;;;;;;;;;;5096678;28;20039;-66
2022/12/08 08:48:57;;;;;;;4.43;1.20;;;2.00;99.90;;;;;;5095227;28;20047;-66
2022/12/08 08:51:23;;;;;;;1.90;1.30;;;;;;;;;;5097813;28;20032;-66
2022/12/08 08:53:49;;;;;;;5.00;1.85;;;2.00;99.90;;;;;;5078514;28;20102;-66
2022/12/08 08:56:18;;;;;;;2.40;1.30;;;2.20;99.90;;;;;;5080291;28;20039;-66
2022/12/08 08:58:45;;;;;;;3.20;1.10;;;2.30;99.90;;;;;;5096385;28;20494;-66
2022/12/08 09:01:15;;;;;;;5.45;1.30;;;2.40;99.90;;;;;;5098087;28;20043;-66
2022/12/08 09:03:41;;;;;;;2.72;1.40;;;2.10;99.90;;;;;;5094695;28;20374;-66
2022/12/08 09:06:07;;;;;;;3.45;1.23;;;;;;;;;;5076130;28;20074;-66
2022/12/08 09:08:33;;;;;;;4.07;1.63;;;2.20;99.90;;;;;;5066167;28;20097;-66
2022/12/08 09:10:58;;;;;;;1.60;1.25;;;2.40;99.90;;;;;;5078463;28;20071;-66
2022/12/08 09:13:24;;;;;;;2.72;1.30;;;;;;;;;;5097934;28;20028;-65
2022/12/08 09:15:50;;;;;;;4.70;1.30;;;2.20;99.90;;;;;;5094384;28;20032;-66
2022/12/08 09:18:16;;;;;;;2.40;1.30;;;;;;;;;;5095968;28;20082;-66
2022/12/08 09:20:41;;;;;;;3.35;1.30;;;2.30;99.90;;;;;;5094058;28;20040;-66
2022/12/08 09:23:07;;;;;;;2.72;1.10;;;;;;;;;;5094741;28;20115;-66
2022/12/08 09:25:33;;;;;;;2.22;1.20;;;2.30;99.90;;;;;;5081873;28;20390;-66
2022/12/08 09:27:58;;;;;;;2.53;1.38;;;2.20;99.90;;;;;;5085685;28;20051;-66
2022/12/08 09:30:24;;;;;;;3.00;1.30;;;2.30;99.90;;;;;;5097898;28;20051;-66
2022/12/08 09:32:50;;;;;;;2.47;1.33;;;;;;;;;;5075761;28;20541;-66
2022/12/08 09:35:16;;;;;;;2.38;1.58;;;1.90;99.90;;;;;;5093950;28;20044;-66
2022/12/08 09:37:41;;;;;;;4.55;1.20;;;2.30;99.90;;;;;;5093141;28;20119;-66
2022/12/08 09:40:09;;;;;;;2.10;1.40;;;2.10;99.90;;;;;;5093971;28;20486;-66
2022/12/08 09:42:50;;;;;;;2.92;1.20;;;2.20;99.90;;;;;;5093662;28;20044;-65
2022/12/08 09:45:17;;;;;;;10.07;2.25;;;2.30;99.90;;;;;;5075942;28;20051;-66
2022/12/08 09:48:06;;;;;;;5.72;1.77;;;2.50;99.90;;;;;;5107846;28;20035;-66
2022/12/08 09:50:44;;;;;;;2.38;1.38;;;2.40;99.90;;;;;;5093692;28;20071;-66
2022/12/08 09:53:18;;;;;;;6.78;1.95;;;2.20;99.90;;;;;;5098796;28;20043;-66
2022/12/08 09:55:59;;;;;;;3.25;1.50;;;2.50;99.90;;;;;;5083111;28;20039;-66
2022/12/08 09:58:25;;;;;;;3.08;1.60;;;;;;;;;;5080054;28;20040;-65
2022/12/08 10:00:50;;;;;;;3.53;1.80;;;2.40;99.90;;;;;;5087913;28;20044;-66
2022/12/08 10:03:17;;;;;;;3.88;1.42;;;;;;;;;;5094930;28;20024;-66
2022/12/08 10:05:54;;;;;;;5.60;1.30;;;2.50;99.90;;;;;;5101957;28;20144;-66
2022/12/08 10:08:27;;;;;;;4.97;2.00;;;2.50;99.90;;;;;;5075081;28;20044;-66
2022/12/08 10:10:57;;;;;;;5.70;2.30;;;2.50;99.90;;;;;;5093363;28;20111;-66
2022/12/08 10:13:45;;;;;;;3.88;1.55;;;2.90;99.90;;;;;;5107361;28;20405;-66
2022/12/08 10:16:37;;;;;;;2.60;1.75;;;3.10;99.90;;;;;;5093290;28;20048;-65
2022/12/08 10:19:12;;;;;;;3.95;1.77;;;3.00;99.90;;;;;;5076000;28;20063;-66
2022/12/08 10:21:38;;;;;;;3.50;2.10;;;3.20;99.90;;;;;;5089039;28;20075;-65
2022/12/08 10:24:12;;;;;;;5.78;1.75;;;3.40;99.90;;;;;;5093358;28;20036;-65
2022/12/08 10:26:38;;;;;;;3.78;1.50;;;3.40;99.90;;;;;;5075232;28;20161;-65
2022/12/08 10:29:05;;;;;;;3.03;1.55;;;3.50;99.90;;;;;;5092757;28;20091;-66
2022/12/08 10:31:31;;;;;;;4.25;1.55;;;3.60;99.90;;;;;;5092990;28;20537;-65
2022/12/08 10:33:59;;;;;;;2.65;1.60;;;3.60;99.90;;;;;;5092834;28;20111;-65
2022/12/08 10:36:46;;;;;;;3.25;1.80;;;3.60;99.90;;;;;;5100384;28;20614;-66
2022/12/08 10:39:30;;;;;;;3.85;1.75;;;3.90;99.90;;;;;;5095283;28;20048;-65
2022/12/08 10:42:13;;;;;;;7.32;1.92;;;3.60;99.90;;;;;;5092987;28;20044;-66
2022/12/08 10:44:49;;;;;;;5.10;2.00;;;;;;;;;;5074639;28;20050;-65
2022/12/08 10:47:14;;;;;;;;;;;3.70;99.90;;;;;;5075492;28;20100;-66
2022/12/08 10:49:40;;;;;;;5.82;2.63;;;3.70;99.90;;;;;;5093238;28;19927;-65
2022/12/08 10:52:22;;;;;;;2.40;1.38;;;3.80;99.90;;;;;;5075021;28;20051;-65
2022/12/08 10:54:53;;;;;;;4.15;1.58;;;;;;;;;;5074803;28;20066;-65
2022/12/08 10:57:24;;;;;;;5.85;1.52;;;4.30;99.90;;;;;;5092708;28;20040;-65
2022/12/08 10:59:52;;;;;;;4.28;1.95;;;4.20;99.90;;;;;;5096930;28;20172;-66
2022/12/08 11:02:19;;;;;;;7.18;3.42;;;4.40;99.90;;;;;;5102384;28;20048;-65
2022/12/08 11:04:45;;;;;;;3.67;2.30;;;4.50;99.90;;;;;;5106971;28;20093;-66
2022/12/08 11:07:19;;;;;;;5.65;3.03;;;4.60;99.90;;;;;;5074599;28;20032;-65
2022/12/08 11:09:47;;;;;;;7.05;2.97;;;5.00;99.90;;;;;;5074360;28;20056;-65
2022/12/08 11:12:15;;;;;;;8.57;2.88;;;4.90;99.90;;;;;;5074516;28;20063;-66
2022/12/08 11:14:44;;;;;;;6.38;3.10;;;5.00;99.90;;;;;;5093101;28;20123;-65
2022/12/08 11:17:23;;;;;;;10.15;3.85;;;5.00;99.90;;;;;;5087270;28;20119;-66
2022/12/08 11:20:00;;;;;;;4.15;2.75;;;4.90;99.90;;;;;;5075011;28;20036;-65
2022/12/08 11:22:32;;;;;;;6.28;3.05;;;4.80;99.90;;;;;;5086342;28;20050;-66
2022/12/08 11:25:23;;;;;;;4.65;2.40;;;4.90;99.90;;;;;;5074406;28;20040;-65
2022/12/08 11:27:51;;;;;;;7.18;2.90;;;5.10;99.90;;;;;;5066478;28;20505;-66
2022/12/08 11:30:19;;;;;;;7.55;2.85;;;5.00;99.90;;;;;;5099479;28;20051;-66
2022/12/08 11:32:46;;;;;;;6.03;2.88;;;;;;;;;;5091893;28;20060;-66
2022/12/08 11:35:24;;;;;;;6.47;2.72;;;5.00;99.90;;;;;;5094199;28;20032;-66
2022/12/08 11:37:50;;;;;;;7.53;2.95;;;;;;;;;;5105804;28;20039;-66
2022/12/08 11:40:23;;;;;;;6.07;2.58;;;5.10;99.90;;;;;;5074158;28;20410;-66
2022/12/08 11:43:07;;;;;;;7.13;2.95;;;5.10;99.90;;;;;;5074529;28;20067;-66
2022/12/08 11:45:34;;;;;;;5.68;3.05;;;5.30;99.90;;;;;;5074067;28;20044;-65
2022/12/08 11:48:13;;;;;;;4.32;2.88;;;5.10;99.90;;;;;;5092408;28;20098;-65
2022/12/08 11:50:46;;;;;;;6.20;1.65;;;5.10;99.90;;;;;;5074113;28;20405;-66
2022/12/08 11:53:17;;;;;;;1.95;1.02;;;4.90;99.90;;;;;;5094249;28;20040;-66
2022/12/08 11:55:59;;;;;;;4.57;1.10;;;4.80;99.90;;;;;;5089016;28;20024;-66
2022/12/08 11:58:55;;;;;;;2.90;0.80;;;4.70;99.90;;;;;;5095594;28;20040;-65
2022/12/08 12:01:25;;;;;;;2.15;1.00;;;4.50;99.90;;;;;;5112164;28;20044;-65
2022/12/08 12:04:22;;;;;;;5.90;0.93;;;4.40;99.90;;;;;;5095506;28;20024;-65
2022/12/08 12:07:24;;;;;;;2.72;0.80;;;4.10;99.90;;;;;;5075611;28;20040;-65
2022/12/08 12:10:11;;;;;;;1.08;0.80;;;4.20;99.90;;;;;;5095435;28;20055;-66
2022/12/08 12:12:56;;;;;;;1.33;1.00;;;4.00;99.90;;;;;;5094742;28;20044;-65
2022/12/08 12:15:29;;;;;;;2.23;0.80;;;;;;;;;;5097786;28;20036;-65
2022/12/08 12:18:15;;;;;;;2.30;0.90;;;4.20;99.90;;;;;;5084236;28;20051;-66
2022/12/08 12:21:15;;;;;;;2.95;1.05;;;4.40;99.90;;;;;;5098575;28;20545;-64
2022/12/08 12:23:50;;;;;;;3.28;0.80;;;4.60;99.90;;;;;;5106590;28;20428;-63
2022/12/08 12:26:18;;;;;;;2.25;1.00;;;;;;;;;;5111933;28;20115;-62
2022/12/08 12:28:51;;;;;;;2.70;1.05;;;5.00;99.90;;;;;;5092733;28;20104;-63
2022/12/08 12:31:21;;;;;;;1.70;0.90;;;5.50;99.90;;;;;;5094971;28;20047;-64
2022/12/08 12:33:48;;;;;;;3.72;1.10;;;6.60;99.90;;;;;;5091250;28;20047;-63
2022/12/08 12:36:15;;;;;;;1.50;0.80;;;7.60;99.90;;;;;;5101213;28;20110;-64
2022/12/08 12:39:02;;;;;;;2.63;1.00;;;;;;;;;;5103228;28;20157;-63
2022/12/08 12:41:51;;;;;;;3.53;1.05;;;8.00;99.90;;;;;;5082072;28;20066;-64
2022/12/08 12:44:16;;;;;;;1.70;0.77;;;7.80;99.90;;;;;;5094980;28;20040;-63
2022/12/08 12:46:45;;;;;;;2.03;0.80;;;7.60;99.90;;;;;;5076724;28;20040;-64
2022/12/08 12:49:38;;;;;;;1.40;0.90;;;7.60;99.90;;;;;;5094692;28;20044;-64
2022/12/08 12:52:19;;;;;;;3.17;1.00;;;7.50;99.90;;;;;;5076761;28;20071;-64
2022/12/08 12:54:48;;;;;;;3.08;1.15;;;7.30;99.90;;;;;;5080936;28;20089;-64
2022/12/08 12:57:21;;;;;;;5.18;1.35;;;6.90;99.90;;;;;;5115166;28;20036;-64
2022/12/08 12:59:53;;;;;;;4.72;1.50;;;;;;;;;;5096956;28;20035;-63
2022/12/08 13:02:44;;;;;;;5.65;1.42;;;7.00;99.90;;;;;;5094759;28;20093;-64
2022/12/08 13:05:48;;;;;;;3.58;1.42;;;7.10;99.90;;;;;;5094581;28;20047;-63
2022/12/08 13:08:21;;;;;;;1.92;1.45;;;7.30;99.90;;;;;;5053915;28;20201;-64
2022/12/08 13:11:05;;;;;;;5.22;1.25;;;7.10;99.90;;;;;;5086730;28;20103;-64
2022/12/08 13:13:32;;;;;;;4.68;1.10;;;7.20;99.90;;;;;;5095360;28;20044;-63
2022/12/08 13:16:06;;;;;;;5.47;1.25;;;6.90;99.90;;;;;;5105683;28;20030;-63
2022/12/08 13:18:47;;;;;;;4.68;1.20;;;6.70;99.90;;;;;;5092387;28;20058;-63
2022/12/08 13:21:14;;;;;;;4.07;1.15;;;;;;;;;;5102515;28;20036;-64
2022/12/08 13:24:12;;;;;;;2.13;0.90;;;6.10;99.90;;;;;;5104369;28;20039;-63
2022/12/08 13:27:03;;;;;;;3.63;0.90;;;5.80;99.90;;;;;;5064187;28;20047;-64
2022/12/08 13:29:32;;;;;;;6.22;1.50;;;;;;;;;;5080364;28;20052;-63
2022/12/08 13:32:19;;;;;;;1.95;0.95;;;5.60;99.90;;;;;;5075696;28;20040;-64
2022/12/08 13:34:50;;;;;;;3.10;1.02;;;5.40;99.90;;;;;;5063107;28;20451;-63
2022/12/08 13:37:19;;;;;;;3.50;1.13;;;5.30;99.90;;;;;;5093770;28;20040;-64